Time;durP1;ratioP1;P1;durP2;ratioP2;P2;SDS_P1;SDS_P2;PMS_P1;PMS_P2;Temp;Humidity;BMP_temperature;BMP_pressure;BME280_temperature;BME280_humidity;BME280_pressure;Samples;Min_cycle;Max_cycle;Signal;HPM_P1;HPM_P2
2024/01/30 00:01:58;;;;;;;46.97;29.55;;;4.00;99.90;;;;;;6340032;22;20068;-32
2024/01/30 00:04:24;;;;;;;41.25;27.40;;;4.00;99.90;;;;;;6340387;22;20015;-31
2024/01/30 00:06:52;;;;;;;45.20;29.65;;;4.00;99.90;;;;;;6312250;22;20053;-31
2024/01/30 00:09:18;;;;;;;46.90;30.27;;;3.80;99.90;;;;;;6287646;22;20011;-31
2024/01/30 00:11:44;;;;;;;49.10;30.27;;;3.80;99.90;;;;;;6340721;22;20526;-30
2024/01/30 00:14:10;;;;;;;46.67;30.27;;;3.80;99.90;;;;;;6312464;22;20010;-31
2024/01/30 00:16:35;;;;;;;43.45;30.00;;;3.80;99.90;;;;;;6338448;22;20400;-32
2024/01/30 00:19:02;;;;;;;44.88;31.63;;;3.70;99.90;;;;;;6339909;22;20079;-30
2024/01/30 00:21:28;;;;;;;46.88;30.95;;;3.70;99.90;;;;;;6339446;22;20006;-31
2024/01/30 00:23:53;;;;;;;51.10;31.23;;;3.60;99.90;;;;;;6261091;22;20078;-32
2024/01/30 00:26:19;;;;;;;50.13;32.30;;;3.60;99.90;;;;;;6312154;22;20022;-31
2024/01/30 00:28:45;;;;;;;51.47;33.13;;;3.50;99.90;;;;;;6312371;22;20054;-31
2024/01/30 00:31:12;;;;;;;56.35;34.60;;;3.50;99.90;;;;;;6340530;22;20011;-31
2024/01/30 00:33:39;;;;;;;51.08;31.58;;;3.40;99.90;;;;;;6312165;22;20015;-30
2024/01/30 00:36:06;;;;;;;51.38;32.72;;;3.40;99.90;;;;;;6312025;22;20026;-31
2024/01/30 00:38:32;;;;;;;49.25;32.35;;;3.40;99.90;;;;;;6338630;22;20068;-31
2024/01/30 00:40:58;;;;;;;58.03;35.22;;;3.30;99.90;;;;;;6312526;22;20364;-32
2024/01/30 00:43:25;;;;;;;51.22;32.33;;;3.30;99.90;;;;;;6285933;22;20084;-30
2024/01/30 00:45:52;;;;;;;52.30;34.03;;;3.40;99.90;;;;;;6286576;22;20014;-32
2024/01/30 00:48:18;;;;;;;57.53;36.85;;;3.40;99.90;;;;;;6339708;22;20050;-31
2024/01/30 00:50:44;;;;;;;66.70;37.60;;;3.40;99.90;;;;;;6339678;22;20018;-31
2024/01/30 00:53:09;;;;;;;59.60;35.28;;;3.40;99.90;;;;;;6311933;22;20015;-32
2024/01/30 00:55:35;;;;;;;62.53;37.80;;;3.30;99.90;;;;;;6312034;22;20011;-32
2024/01/30 00:58:01;;;;;;;65.28;38.05;;;3.50;99.90;;;;;;6312354;22;20414;-30
2024/01/30 01:00:29;;;;;;;59.42;35.90;;;3.40;99.90;;;;;;6311984;22;20007;-31
2024/01/30 01:02:55;;;;;;;61.80;37.78;;;3.30;99.90;;;;;;6339569;22;20010;-31
2024/01/30 01:05:21;;;;;;;66.65;38.28;;;3.40;99.90;;;;;;6339400;22;20046;-31
2024/01/30 01:07:50;;;;;;;62.55;39.10;;;3.40;99.90;;;;;;6339568;22;20021;-31
2024/01/30 01:10:17;;;;;;;63.58;38.63;;;3.40;99.90;;;;;;6311501;22;20018;-31
2024/01/30 01:12:43;;;;;;;62.40;38.97;;;3.60;99.90;;;;;;6339638;22;20011;-31
2024/01/30 01:15:12;;;;;;;65.90;39.40;;;3.40;99.90;;;;;;6286689;22;20007;-31
2024/01/30 01:17:38;;;;;;;66.35;37.75;;;3.40;99.90;;;;;;6340505;22;20010;-31
2024/01/30 01:20:06;;;;;;;58.20;36.28;;;3.30;99.90;;;;;;6312143;22;20018;-31
2024/01/30 01:22:32;;;;;;;61.88;37.17;;;3.30;99.90;;;;;;6338670;22;20019;-30
2024/01/30 01:25:01;;;;;;;58.33;36.17;;;3.30;99.90;;;;;;6339391;22;20082;-31
2024/01/30 01:27:27;;;;;;;67.70;38.92;;;3.40;99.90;;;;;;6312255;22;20026;-31
2024/01/30 01:29:53;;;;;;;62.03;38.03;;;3.40;99.90;;;;;;6340480;22;20411;-30
2024/01/30 01:32:19;;;;;;;64.85;36.45;;;3.30;99.90;;;;;;6311716;22;20011;-30
2024/01/30 01:34:44;;;;;;;71.68;39.22;;;3.30;99.90;;;;;;6340089;22;20017;-30
2024/01/30 01:37:10;;;;;;;71.15;39.70;;;3.40;99.90;;;;;;6340378;22;20086;-30
2024/01/30 01:39:36;;;;;;;65.53;38.92;;;3.40;99.90;;;;;;6338917;22;20401;-31
2024/01/30 01:42:02;;;;;;;63.05;38.33;;;3.40;99.90;;;;;;6339546;22;20014;-31
2024/01/30 01:44:28;;;;;;;70.45;39.78;;;3.40;99.90;;;;;;6280511;22;20450;-31
2024/01/30 01:46:55;;;;;;;66.55;39.00;;;3.40;99.90;;;;;;6306464;22;20011;-30
2024/01/30 01:49:22;;;;;;;67.53;40.42;;;3.50;99.90;;;;;;6310029;22;20441;-32
2024/01/30 01:51:49;;;;;;;69.93;40.90;;;3.50;99.90;;;;;;6310049;22;20454;-30
2024/01/30 01:54:15;;;;;;;70.43;41.38;;;3.70;99.90;;;;;;6310119;22;20011;-30
2024/01/30 01:56:42;;;;;;;68.22;39.47;;;3.60;99.90;;;;;;6309686;22;20375;-30
2024/01/30 01:59:08;;;;;;;65.97;39.33;;;3.60;99.90;;;;;;6310299;22;20345;-31
2024/01/30 02:01:37;;;;;;;68.95;39.53;;;3.60;99.90;;;;;;6310085;22;20011;-31
2024/01/30 02:04:04;;;;;;;70.35;39.88;;;3.60;99.90;;;;;;6310012;22;20061;-32
2024/01/30 02:06:29;;;;;;;70.53;39.45;;;3.70;99.90;;;;;;6282584;22;20415;-30
2024/01/30 02:08:55;;;;;;;67.53;39.40;;;3.70;99.90;;;;;;6310585;22;20023;-30
2024/01/30 02:11:22;;;;;;;68.85;40.60;;;3.70;99.90;;;;;;6309443;22;20015;-31
2024/01/30 02:13:49;;;;;;;65.25;39.67;;;3.70;99.90;;;;;;6309447;22;20029;-31
2024/01/30 02:16:14;;;;;;;65.38;38.85;;;3.70;99.90;;;;;;6308407;22;20003;-30
2024/01/30 02:18:41;;;;;;;66.28;39.38;;;3.70;99.90;;;;;;6308283;22;20021;-31
2024/01/30 02:21:08;;;;;;;66.43;40.55;;;3.80;99.90;;;;;;6309817;22;20060;-30
2024/01/30 02:23:34;;;;;;;65.15;39.58;;;3.70;99.90;;;;;;6309409;22;20019;-31
2024/01/30 02:26:00;;;;;;;64.72;39.30;;;3.80;99.90;;;;;;6309588;22;20422;-31
2024/01/30 02:28:27;;;;;;;66.13;41.30;;;3.80;99.90;;;;;;6309762;22;20136;-32
2024/01/30 02:30:53;;;;;;;64.85;39.85;;;3.80;99.90;;;;;;6310108;22;20069;-30
2024/01/30 02:33:19;;;;;;;61.78;39.55;;;3.80;99.90;;;;;;6308142;22;20015;-31
2024/01/30 02:35:45;;;;;;;63.92;39.80;;;3.80;99.90;;;;;;6309687;22;20036;-31
2024/01/30 02:38:10;;;;;;;59.53;36.63;;;3.80;99.90;;;;;;6310311;22;20026;-30
2024/01/30 02:40:36;;;;;;;58.70;38.17;;;3.60;99.90;;;;;;6309906;22;20067;-30
2024/01/30 02:43:03;;;;;;;63.35;37.42;;;3.60;99.90;;;;;;6309439;22;20327;-31
2024/01/30 02:45:28;;;;;;;58.30;35.95;;;3.60;99.90;;;;;;6307567;22;20038;-31
2024/01/30 02:47:54;;;;;;;60.75;39.10;;;3.70;99.90;;;;;;6310129;22;20020;-32
2024/01/30 02:50:20;;;;;;;57.80;37.63;;;3.80;99.90;;;;;;6282507;22;20094;-31
2024/01/30 02:52:46;;;;;;;61.30;38.28;;;4.00;99.90;;;;;;6308043;22;20011;-30
2024/01/30 02:55:12;;;;;;;61.33;38.05;;;4.00;99.90;;;;;;6310123;22;20094;-32
2024/01/30 02:57:38;;;;;;;59.45;37.45;;;4.10;99.90;;;;;;6309476;22;20011;-32
2024/01/30 03:00:06;;;;;;;65.97;39.10;;;4.10;99.90;;;;;;6307533;22;20015;-28
2024/01/30 03:02:32;;;;;;;62.40;38.28;;;4.20;99.90;;;;;;6308025;22;20011;-28
2024/01/30 03:04:59;;;;;;;66.05;37.83;;;4.20;99.90;;;;;;6309585;22;20352;-29
2024/01/30 03:07:25;;;;;;;62.40;38.53;;;4.10;99.90;;;;;;6309343;22;20057;-27
2024/01/30 03:09:51;;;;;;;54.35;34.63;;;4.10;99.90;;;;;;6309349;22;20011;-28
2024/01/30 03:12:17;;;;;;;53.63;34.90;;;4.10;99.90;;;;;;6309303;22;20015;-28
2024/01/30 03:14:43;;;;;;;61.30;35.63;;;4.00;99.90;;;;;;6309908;22;20007;-28
2024/01/30 03:17:08;;;;;;;56.83;35.70;;;4.00;99.90;;;;;;6309278;22;20017;-28
2024/01/30 03:19:34;;;;;;;54.65;35.38;;;3.90;99.90;;;;;;6309303;22;20069;-28
2024/01/30 03:22:00;;;;;;;60.75;35.78;;;3.90;99.90;;;;;;6281808;22;20015;-29
2024/01/30 03:24:25;;;;;;;54.60;34.72;;;3.90;99.90;;;;;;6309136;22;20094;-28
2024/01/30 03:26:51;;;;;;;61.95;35.83;;;3.90;99.90;;;;;;6309063;22;20015;-28
2024/01/30 03:29:17;;;;;;;59.40;35.28;;;3.90;99.90;;;;;;6309173;22;20022;-28
2024/01/30 03:31:43;;;;;;;61.70;36.92;;;3.90;99.90;;;;;;6309150;22;20021;-28
2024/01/30 03:34:09;;;;;;;64.30;37.25;;;3.90;99.90;;;;;;6308752;22;20453;-27
2024/01/30 03:36:34;;;;;;;67.28;36.47;;;3.90;99.90;;;;;;6309698;22;20011;-28
2024/01/30 03:39:01;;;;;;;52.97;33.95;;;3.90;99.90;;;;;;6307593;22;20073;-28
2024/01/30 03:41:26;;;;;;;58.03;36.45;;;3.90;99.90;;;;;;6308562;22;20434;-29
2024/01/30 03:43:52;;;;;;;56.35;35.22;;;4.00;99.90;;;;;;6318794;22;20015;-28
2024/01/30 03:46:18;;;;;;;53.90;35.15;;;4.10;99.90;;;;;;6313629;22;20339;-28
2024/01/30 03:48:48;;;;;;;54.35;34.55;;;4.20;99.90;;;;;;6312891;22;20072;-27
2024/01/30 03:51:15;;;;;;;55.42;36.13;;;4.30;99.90;;;;;;6340099;22;20019;-28
2024/01/30 03:53:46;;;;;;;52.17;34.45;;;4.50;99.90;;;;;;6312721;22;20050;-28
2024/01/30 03:56:13;;;;;;;54.70;34.78;;;4.50;99.90;;;;;;6312630;22;20011;-28
2024/01/30 03:58:39;;;;;;;53.78;33.67;;;4.60;99.90;;;;;;6338590;22;20015;-29
2024/01/30 04:01:04;;;;;;;48.33;30.40;;;4.50;99.90;;;;;;6312817;22;20022;-29
2024/01/30 04:03:30;;;;;;;49.10;31.80;;;4.40;99.90;;;;;;6312911;22;20017;-28
2024/01/30 04:05:56;;;;;;;50.33;31.13;;;4.40;99.90;;;;;;6286958;22;20037;-28
2024/01/30 04:08:22;;;;;;;50.67;31.67;;;4.20;99.90;;;;;;6340008;22;20011;-28
2024/01/30 04:10:47;;;;;;;49.75;31.40;;;4.20;99.90;;;;;;6339913;22;20019;-28
2024/01/30 04:13:13;;;;;;;49.58;31.08;;;4.10;99.90;;;;;;6312463;22;20097;-28
2024/01/30 04:15:39;;;;;;;50.50;31.95;;;4.20;99.90;;;;;;6339978;22;20499;-28
2024/01/30 04:18:05;;;;;;;53.10;34.17;;;4.30;99.90;;;;;;6339917;22;20093;-28
2024/01/30 04:20:31;;;;;;;56.30;35.58;;;4.30;99.90;;;;;;6339911;22;20068;-28
2024/01/30 04:22:57;;;;;;;49.35;32.22;;;4.30;99.90;;;;;;6312356;22;20019;-28
2024/01/30 04:25:23;;;;;;;47.70;32.35;;;4.40;99.90;;;;;;6312244;22;20017;-28
2024/01/30 04:27:49;;;;;;;46.88;30.67;;;4.60;99.90;;;;;;6340167;22;20085;-28
2024/01/30 04:30:14;;;;;;;49.28;31.08;;;4.60;99.90;;;;;;6339848;22;20423;-28
2024/01/30 04:32:40;;;;;;;46.60;31.35;;;4.70;99.90;;;;;;6339900;22;20049;-28
2024/01/30 04:35:06;;;;;;;43.65;30.42;;;4.80;99.90;;;;;;6339893;22;20049;-28
2024/01/30 04:37:32;;;;;;;44.42;30.75;;;4.80;99.90;;;;;;6340090;22;20014;-28
2024/01/30 04:39:58;;;;;;;45.17;29.50;;;4.90;99.90;;;;;;6340488;22;20438;-28
2024/01/30 04:42:23;;;;;;;46.17;29.60;;;4.90;99.90;;;;;;6340388;22;20441;-28
2024/01/30 04:44:50;;;;;;;43.33;27.80;;;5.00;99.90;;;;;;6339801;22;20423;-28
2024/01/30 04:47:15;;;;;;;42.13;28.88;;;5.10;99.90;;;;;;6340682;22;20319;-28
2024/01/30 04:49:41;;;;;;;44.47;28.60;;;5.20;99.90;;;;;;6312031;22;20010;-28
2024/01/30 04:52:08;;;;;;;40.90;26.55;;;5.20;99.90;;;;;;6312781;22;20091;-28
2024/01/30 04:54:35;;;;;;;40.22;28.10;;;5.30;99.90;;;;;;6312052;22;20017;-28
2024/01/30 04:57:05;;;;;;;36.65;24.63;;;5.40;99.90;;;;;;6339622;22;20101;-29
2024/01/30 04:59:31;;;;;;;35.88;24.95;;;5.30;99.90;;;;;;6339701;22;20086;-29
2024/01/30 05:01:56;;;;;;;34.78;24.35;;;5.40;99.90;;;;;;6340295;22;20049;-28
2024/01/30 05:04:22;;;;;;;41.78;24.75;;;5.50;99.90;;;;;;6339605;22;20042;-30
2024/01/30 05:06:48;;;;;;;31.75;23.73;;;5.50;99.90;;;;;;6286477;22;20007;-28
2024/01/30 05:09:14;;;;;;;32.00;23.58;;;5.50;99.90;;;;;;6339559;22;20442;-28
2024/01/30 05:11:40;;;;;;;34.08;24.02;;;5.60;99.90;;;;;;6286216;22;20011;-28
2024/01/30 05:14:07;;;;;;;33.22;23.92;;;5.60;99.90;;;;;;6339593;22;20069;-28
2024/01/30 05:16:32;;;;;;;32.10;22.08;;;5.60;99.90;;;;;;6340289;22;20014;-29
2024/01/30 05:18:59;;;;;;;30.90;21.85;;;5.80;99.90;;;;;;6286060;22;20440;-28
2024/01/30 05:21:25;;;;;;;27.65;21.83;;;5.70;99.90;;;;;;6287144;22;20093;-29
2024/01/30 05:23:50;;;;;;;30.80;21.42;;;5.60;99.90;;;;;;6311878;22;20053;-28
2024/01/30 05:26:16;;;;;;;31.60;21.55;;;5.70;99.90;;;;;;6340333;22;20011;-28
2024/01/30 05:28:44;;;;;;;28.05;20.30;;;5.70;99.90;;;;;;6339539;22;20042;-29
2024/01/30 05:31:10;;;;;;;30.20;20.65;;;5.80;99.90;;;;;;6339128;22;20450;-28
2024/01/30 05:33:36;;;;;;;26.85;19.95;;;5.80;99.90;;;;;;6312097;22;20011;-29
2024/01/30 05:36:02;;;;;;;24.30;18.40;;;5.70;99.90;;;;;;6285929;22;20010;-30
2024/01/30 05:38:31;;;;;;;27.48;19.60;;;5.80;99.90;;;;;;6339457;22;20011;-28
2024/01/30 05:40:58;;;;;;;27.70;19.42;;;5.90;99.90;;;;;;6339373;22;20007;-29
2024/01/30 05:43:24;;;;;;;24.13;17.75;;;5.90;99.90;;;;;;6311633;22;20014;-28
2024/01/30 05:45:51;;;;;;;21.33;16.52;;;6.00;99.90;;;;;;6312811;22;20011;-28
2024/01/30 05:48:17;;;;;;;22.95;17.25;;;6.00;99.90;;;;;;6311891;22;20060;-29
2024/01/30 05:50:43;;;;;;;24.50;16.88;;;6.00;99.90;;;;;;6340348;22;20018;-28
2024/01/30 05:53:09;;;;;;;24.77;16.70;;;6.10;99.90;;;;;;6311855;22;20015;-29
2024/01/30 05:55:34;;;;;;;23.67;15.50;;;6.20;99.90;;;;;;6312103;22;20056;-28
2024/01/30 05:58:00;;;;;;;24.15;16.98;;;6.30;99.90;;;;;;6339276;22;20108;-29
2024/01/30 06:00:26;;;;;;;21.67;14.05;;;6.30;99.90;;;;;;6339275;22;20046;-29
2024/01/30 06:02:52;;;;;;;21.88;16.05;;;6.40;99.90;;;;;;6285882;22;20292;-28
2024/01/30 06:05:18;;;;;;;20.75;15.15;;;6.40;99.90;;;;;;6311688;22;20015;-28
2024/01/30 06:07:43;;;;;;;24.35;17.35;;;6.40;99.90;;;;;;6311698;22;20019;-29
2024/01/30 06:10:09;;;;;;;21.60;15.23;;;6.40;99.90;;;;;;6339065;22;20011;-28
2024/01/30 06:12:35;;;;;;;29.00;16.77;;;6.40;99.90;;;;;;6339055;22;20093;-28
2024/01/30 06:15:01;;;;;;;22.75;16.30;;;6.40;99.90;;;;;;6311692;22;20010;-28
2024/01/30 06:17:28;;;;;;;20.58;15.25;;;6.40;99.90;;;;;;6339165;22;20011;-28
2024/01/30 06:19:54;;;;;;;22.90;16.52;;;6.40;99.90;;;;;;6339202;22;20015;-28
2024/01/30 06:22:19;;;;;;;21.92;16.02;;;6.40;99.90;;;;;;6260171;22;20296;-28
2024/01/30 06:24:47;;;;;;;21.40;14.88;;;6.40;99.90;;;;;;6312387;22;20433;-28
2024/01/30 06:27:13;;;;;;;26.15;15.90;;;6.40;99.90;;;;;;6339194;22;20093;-29
2024/01/30 06:29:40;;;;;;;22.83;17.00;;;6.50;99.90;;;;;;6339849;22;20453;-29
2024/01/30 06:32:06;;;;;;;20.70;15.57;;;6.50;99.90;;;;;;6338676;22;20307;-28
2024/01/30 06:34:31;;;;;;;22.63;16.50;;;6.40;99.90;;;;;;6286371;22;20015;-29
2024/01/30 06:36:57;;;;;;;22.75;15.20;;;6.40;99.90;;;;;;6287547;22;20492;-28
2024/01/30 06:39:23;;;;;;;20.15;13.63;;;6.50;99.90;;;;;;6340697;22;20033;-28
2024/01/30 06:41:49;;;;;;;22.25;15.68;;;6.50;99.90;;;;;;6340749;22;20033;-28
2024/01/30 06:44:15;;;;;;;25.08;14.38;;;6.60;99.90;;;;;;6313091;22;20060;-28
2024/01/30 06:46:40;;;;;;;21.08;14.00;;;6.60;99.90;;;;;;6340614;22;20089;-28
2024/01/30 06:49:06;;;;;;;24.98;12.95;;;6.70;99.90;;;;;;6340675;22;20050;-28
2024/01/30 06:51:32;;;;;;;20.73;14.27;;;6.70;99.90;;;;;;6312878;22;20042;-28
2024/01/30 06:53:57;;;;;;;19.02;13.20;;;6.70;99.90;;;;;;6313114;22;20010;-28
2024/01/30 06:56:23;;;;;;;19.42;14.35;;;6.70;99.90;;;;;;6340224;22;20006;-28
2024/01/30 06:58:50;;;;;;;23.02;14.80;;;6.70;99.90;;;;;;6314235;22;20015;-28
2024/01/30 07:01:16;;;;;;;21.55;15.07;;;6.60;99.90;;;;;;6341613;22;20017;-28
2024/01/30 07:03:42;;;;;;;22.33;14.98;;;6.60;99.90;;;;;;6313204;22;20057;-28
2024/01/30 07:06:09;;;;;;;20.98;13.52;;;6.60;99.90;;;;;;6312984;22;20011;-29
2024/01/30 07:08:34;;;;;;;19.35;14.43;;;6.60;99.90;;;;;;6339354;22;20071;-29
2024/01/30 07:11:00;;;;;;;22.42;13.63;;;6.50;99.90;;;;;;6313862;22;20089;-29
2024/01/30 07:13:28;;;;;;;23.25;15.55;;;6.60;99.90;;;;;;6341190;22;20011;-28
2024/01/30 07:15:54;;;;;;;24.40;15.20;;;6.60;99.90;;;;;;6340463;22;20014;-28
2024/01/30 07:18:19;;;;;;;22.00;14.27;;;6.60;99.90;;;;;;6312950;22;20011;-28
2024/01/30 07:20:49;;;;;;;20.38;13.52;;;6.60;99.90;;;;;;6340785;22;20422;-29
2024/01/30 07:23:17;;;;;;;23.35;14.57;;;6.50;99.90;;;;;;6339922;22;20011;-28
2024/01/30 07:25:44;;;;;;;20.38;15.02;;;6.50;99.90;;;;;;6340338;22;20011;-28
2024/01/30 07:28:11;;;;;;;21.40;14.18;;;6.50;99.90;;;;;;6340799;22;20446;-28
2024/01/30 07:30:37;;;;;;;18.38;13.65;;;6.50;99.90;;;;;;6313209;22;20033;-28
2024/01/30 07:33:02;;;;;;;18.67;13.32;;;6.50;99.90;;;;;;6312714;22;20062;-28
2024/01/30 07:35:28;;;;;;;19.63;13.43;;;6.60;99.90;;;;;;6312797;22;20014;-28
2024/01/30 07:37:54;;;;;;;16.73;11.57;;;6.60;99.90;;;;;;6340223;22;20360;-29
2024/01/30 07:40:20;;;;;;;17.65;13.15;;;6.70;99.90;;;;;;6340268;22;20011;-28
2024/01/30 07:42:45;;;;;;;22.42;13.98;;;6.70;99.90;;;;;;6312672;22;20093;-28
2024/01/30 07:45:11;;;;;;;18.50;12.93;;;6.70;99.90;;;;;;6340044;22;20011;-28
2024/01/30 07:47:37;;;;;;;21.02;12.90;;;6.70;99.90;;;;;;6313401;22;20050;-28
2024/01/30 07:50:03;;;;;;;18.65;12.68;;;6.80;99.90;;;;;;6340206;22;20365;-29
2024/01/30 07:52:29;;;;;;;20.10;13.57;;;6.80;99.90;;;;;;6286726;22;20114;-28
2024/01/30 07:54:55;;;;;;;16.30;12.63;;;6.80;99.90;;;;;;6286440;22;20451;-30
2024/01/30 07:57:21;;;;;;;17.25;13.05;;;6.90;99.90;;;;;;6287856;22;20050;-28
2024/01/30 07:59:46;;;;;;;18.65;13.80;;;7.00;99.90;;;;;;6286914;22;20014;-30
2024/01/30 08:02:13;;;;;;;18.50;12.85;;;7.00;99.90;;;;;;6340792;22;20010;-28
2024/01/30 08:04:39;;;;;;;19.42;13.20;;;7.00;99.90;;;;;;6312566;22;20017;-29
2024/01/30 08:07:04;;;;;;;21.00;12.77;;;7.00;99.90;;;;;;6339953;22;20007;-31
2024/01/30 08:09:30;;;;;;;21.35;12.25;;;7.10;99.90;;;;;;6312748;22;20006;-29
2024/01/30 08:11:56;;;;;;;17.13;13.40;;;7.10;99.90;;;;;;6339998;22;20097;-28
2024/01/30 08:14:22;;;;;;;26.23;13.20;;;7.10;99.90;;;;;;6340048;22;20015;-28
2024/01/30 08:16:47;;;;;;;15.55;10.43;;;7.00;99.90;;;;;;6339968;22;20013;-31
2024/01/30 08:19:15;;;;;;;18.17;12.55;;;7.00;99.90;;;;;;6340938;22;20017;-29
2024/01/30 08:21:40;;;;;;;18.08;12.05;;;6.90;99.90;;;;;;6340018;22;20319;-29
2024/01/30 08:24:07;;;;;;;19.45;11.90;;;7.00;99.90;;;;;;6312273;22;20418;-28
2024/01/30 08:26:33;;;;;;;20.17;12.27;;;7.00;99.90;;;;;;6313338;22;20007;-28
2024/01/30 08:28:59;;;;;;;16.90;11.43;;;7.10;99.90;;;;;;6339895;22;20010;-29
2024/01/30 08:31:25;;;;;;;18.17;11.57;;;7.10;99.90;;;;;;6312311;22;20059;-30
2024/01/30 08:33:51;;;;;;;17.67;11.88;;;7.20;99.90;;;;;;6340869;22;20010;-28
2024/01/30 08:36:17;;;;;;;18.55;13.40;;;7.20;99.90;;;;;;6339419;22;20426;-28
2024/01/30 08:38:43;;;;;;;17.52;12.70;;;7.30;99.90;;;;;;6340873;22;20078;-29
2024/01/30 08:41:09;;;;;;;17.77;12.60;;;7.30;99.90;;;;;;6339974;22;20453;-28
2024/01/30 08:43:36;;;;;;;20.05;12.40;;;7.30;99.90;;;;;;6260444;22;20017;-28
2024/01/30 08:46:02;;;;;;;22.00;12.52;;;7.30;99.90;;;;;;6340400;22;20011;-29
2024/01/30 08:48:28;;;;;;;21.75;12.60;;;7.40;99.90;;;;;;6339683;22;20435;-28
2024/01/30 08:50:54;;;;;;;17.60;12.30;;;7.40;99.90;;;;;;6312145;22;20030;-28
2024/01/30 08:53:20;;;;;;;17.55;12.15;;;7.40;99.90;;;;;;6312094;22;20063;-28
2024/01/30 08:55:45;;;;;;;19.27;11.45;;;7.50;99.90;;;;;;6260648;22;20105;-29
2024/01/30 08:58:11;;;;;;;19.15;10.68;;;7.50;99.90;;;;;;6339280;22;20288;-28
2024/01/30 09:00:37;;;;;;;21.35;12.40;;;7.60;99.90;;;;;;6312055;22;20479;-28
2024/01/30 09:03:06;;;;;;;20.42;11.80;;;7.60;99.90;;;;;;6260538;22;20419;-28
2024/01/30 09:05:31;;;;;;;17.10;12.30;;;7.70;99.90;;;;;;6339905;22;20307;-28
2024/01/30 09:07:57;;;;;;;19.42;13.25;;;7.80;99.90;;;;;;6340288;22;20015;-29
2024/01/30 09:10:23;;;;;;;17.40;11.40;;;7.90;99.90;;;;;;6339514;22;20049;-28
2024/01/30 09:12:49;;;;;;;18.75;12.15;;;8.00;99.90;;;;;;6286110;22;20011;-28
2024/01/30 09:15:15;;;;;;;15.63;11.73;;;7.90;99.90;;;;;;6339522;22;20010;-28
2024/01/30 09:17:41;;;;;;;20.80;11.27;;;8.10;99.90;;;;;;6339081;22;20483;-28
2024/01/30 09:20:08;;;;;;;18.48;12.68;;;8.20;99.90;;;;;;6340543;22;20049;-29
2024/01/30 09:22:33;;;;;;;15.73;11.98;;;8.30;99.90;;;;;;6339525;22;20018;-28
2024/01/30 09:24:59;;;;;;;19.77;11.20;;;8.40;99.90;;;;;;6339432;22;20022;-29
2024/01/30 09:27:25;;;;;;;15.20;10.88;;;8.50;99.90;;;;;;6340159;22;20111;-29
2024/01/30 09:29:50;;;;;;;19.40;11.88;;;8.60;99.90;;;;;;6287053;22;20013;-30
2024/01/30 09:32:17;;;;;;;14.65;11.68;;;8.70;99.90;;;;;;6312883;22;20058;-28
2024/01/30 09:34:43;;;;;;;20.60;11.60;;;8.70;99.90;;;;;;6312590;22;20098;-29
2024/01/30 09:37:09;;;;;;;14.63;10.95;;;8.70;99.90;;;;;;6311876;22;20034;-28
2024/01/30 09:39:35;;;;;;;16.98;11.18;;;8.80;99.90;;;;;;6285910;22;20076;-29
2024/01/30 09:42:30;;;;;;;19.58;11.27;;;8.80;99.90;;;;;;6285957;22;20010;-28
2024/01/30 09:44:56;;;;;;;14.88;10.98;;;8.80;99.90;;;;;;6339367;22;20464;-28
2024/01/30 09:47:22;;;;;;;14.98;11.05;;;8.80;99.90;;;;;;6340039;22;20310;-29
2024/01/30 09:49:48;;;;;;;17.02;10.57;;;8.80;99.90;;;;;;6339350;22;20014;-29
2024/01/30 09:52:15;;;;;;;19.10;11.80;;;8.90;99.90;;;;;;6285977;22;20311;-28
2024/01/30 09:54:42;;;;;;;16.95;10.73;;;8.90;99.90;;;;;;6312054;22;20015;-29
2024/01/30 09:57:08;;;;;;;18.33;11.52;;;8.90;99.90;;;;;;6286886;22;20322;-29
2024/01/30 09:59:34;;;;;;;18.83;11.63;;;9.00;99.90;;;;;;6339306;22;20072;-28
2024/01/30 10:02:00;;;;;;;19.88;11.75;;;9.00;99.90;;;;;;6286154;22;20015;-29
2024/01/30 10:04:26;;;;;;;18.05;11.73;;;9.00;99.90;;;;;;6338893;22;20452;-29
2024/01/30 10:06:52;;;;;;;17.13;11.23;;;9.00;99.90;;;;;;6339850;22;20008;-30
2024/01/30 10:09:17;;;;;;;16.27;11.38;;;9.00;99.90;;;;;;6340254;22;20018;-29
2024/01/30 10:11:43;;;;;;;19.27;12.48;;;9.10;99.90;;;;;;6313718;22;20027;-28
2024/01/30 10:14:09;;;;;;;19.58;11.85;;;9.10;99.90;;;;;;6341130;22;20426;-28
2024/01/30 10:16:35;;;;;;;16.67;11.10;;;9.10;99.90;;;;;;6341025;22;20007;-28
2024/01/30 10:19:01;;;;;;;22.40;12.45;;;9.10;99.90;;;;;;6341026;22;20052;-30
2024/01/30 10:21:27;;;;;;;20.17;11.77;;;9.10;99.90;;;;;;6341001;22;20111;-28
2024/01/30 10:23:53;;;;;;;16.77;11.90;;;9.10;99.90;;;;;;6340949;22;20011;-30
2024/01/30 10:26:19;;;;;;;18.70;11.52;;;9.10;99.90;;;;;;6339666;22;20042;-29
2024/01/30 10:28:44;;;;;;;19.05;11.80;;;9.00;99.90;;;;;;6340902;22;20019;-29
2024/01/30 10:31:10;;;;;;;19.02;11.35;;;9.10;99.90;;;;;;6313712;22;20090;-28
2024/01/30 10:33:36;;;;;;;19.58;11.10;;;9.20;99.90;;;;;;6340878;22;20422;-28
2024/01/30 10:36:04;;;;;;;18.23;11.60;;;9.10;99.90;;;;;;6340787;22;20010;-29
2024/01/30 10:38:30;;;;;;;19.85;11.57;;;9.10;99.90;;;;;;6340818;22;20018;-28
2024/01/30 10:41:00;;;;;;;21.45;11.23;;;9.10;99.90;;;;;;6314317;22;20015;-29
2024/01/30 10:43:40;;;;;;;16.90;11.23;;;9.20;99.90;;;;;;6313644;22;20033;-28
2024/01/30 10:46:19;;;;;;;16.15;9.52;;;9.20;99.90;;;;;;6313601;22;20015;-28
2024/01/30 10:48:50;;;;;;;15.98;9.00;;;9.30;99.90;;;;;;6341066;22;20021;-28
2024/01/30 10:51:18;;;;;;;13.38;8.55;;;9.40;99.90;;;;;;6340579;22;20460;-28
2024/01/30 10:53:47;;;;;;;15.80;9.35;;;9.50;99.90;;;;;;6341330;22;20007;-29
2024/01/30 10:56:15;;;;;;;16.83;7.10;;;9.60;99.90;;;;;;6340637;22;20018;-28
2024/01/30 10:58:41;;;;;;;13.00;7.63;;;9.50;99.90;;;;;;6313073;22;20011;-30
2024/01/30 11:01:07;;;;;;;16.90;6.20;;;9.50;99.90;;;;;;6287563;22;20014;-28
2024/01/30 11:03:36;;;;;;;14.90;8.05;;;9.50;99.90;;;;;;6340656;22;20014;-28
2024/01/30 11:06:02;;;;;;;13.40;7.60;;;9.40;99.90;;;;;;6287125;22;20015;-29
2024/01/30 11:08:28;;;;;;;13.23;7.35;;;9.50;99.90;;;;;;6287763;22;20015;-28
2024/01/30 11:10:58;;;;;;;11.90;6.10;;;9.40;99.90;;;;;;6287276;22;20457;-28
2024/01/30 11:13:31;;;;;;;12.73;6.60;;;9.50;99.90;;;;;;6340507;22;20075;-28
2024/01/30 11:16:04;;;;;;;23.23;7.25;;;9.50;99.90;;;;;;6340486;22;20042;-28
2024/01/30 11:18:31;;;;;;;14.20;6.25;;;9.50;99.90;;;;;;6312977;22;20045;-28
2024/01/30 11:20:58;;;;;;;18.63;7.40;;;9.50;99.90;;;;;;6340723;22;20083;-28
2024/01/30 11:23:26;;;;;;;13.10;5.82;;;9.40;99.90;;;;;;6312795;22;20103;-29
2024/01/30 11:25:53;;;;;;;14.57;5.60;;;9.30;99.90;;;;;;6287242;22;20013;-28
2024/01/30 11:28:20;;;;;;;12.65;5.30;;;9.30;99.90;;;;;;6340380;22;20029;-28
2024/01/30 11:30:47;;;;;;;16.50;4.63;;;9.20;99.90;;;;;;6313149;22;20010;-29
2024/01/30 11:33:14;;;;;;;6.72;3.13;;;9.20;99.90;;;;;;6341078;22;20014;-29
2024/01/30 11:35:42;;;;;;;10.48;4.45;;;9.10;99.90;;;;;;6341097;22;20038;-29
2024/01/30 11:38:09;;;;;;;11.40;4.45;;;9.10;99.90;;;;;;6313069;22;20140;-29
2024/01/30 11:40:37;;;;;;;13.82;4.55;;;9.10;99.90;;;;;;6313116;22;20011;-28
2024/01/30 11:43:05;;;;;;;11.25;3.90;;;9.20;99.90;;;;;;6340186;22;20045;-29
2024/01/30 11:45:31;;;;;;;9.05;3.47;;;9.10;99.90;;;;;;6312187;22;20021;-28
2024/01/30 11:48:00;;;;;;;9.23;3.25;;;9.20;99.90;;;;;;6340229;22;20071;-28
2024/01/30 11:50:26;;;;;;;11.05;3.55;;;9.10;99.90;;;;;;6313229;22;20022;-28
2024/01/30 11:52:51;;;;;;;11.35;2.33;;;9.00;99.90;;;;;;6312750;22;20011;-29
2024/01/30 11:55:18;;;;;;;5.75;2.08;;;8.90;99.90;;;;;;6339750;22;20029;-28
2024/01/30 11:57:44;;;;;;;7.13;2.85;;;8.90;99.90;;;;;;6313526;22;20019;-29
2024/01/30 12:00:20;;;;;;;8.30;1.92;;;8.80;99.90;;;;;;6340121;22;20322;-28
2024/01/30 12:02:55;;;;;;;6.28;1.40;;;8.70;99.90;;;;;;6340807;22;20094;-28
2024/01/30 12:05:28;;;;;;;5.43;1.67;;;8.70;99.90;;;;;;6288237;22;20011;-29
2024/01/30 12:07:54;;;;;;;4.28;1.55;;;8.70;99.90;;;;;;6340146;22;20355;-29
2024/01/30 12:10:21;;;;;;;5.60;1.52;;;8.60;99.90;;;;;;6313334;22;20122;-30
2024/01/30 12:12:50;;;;;;;5.55;1.40;;;8.60;99.90;;;;;;6340020;22;20010;-28
2024/01/30 12:15:18;;;;;;;6.13;1.45;;;8.60;99.90;;;;;;6339965;22;20099;-29
2024/01/30 12:17:43;;;;;;;10.18;1.70;;;8.60;99.90;;;;;;6340049;22;20357;-28
2024/01/30 12:20:11;;;;;;;5.68;1.27;;;8.50;99.90;;;;;;6312435;22;20014;-29
2024/01/30 12:22:40;;;;;;;4.60;1.65;;;8.50;99.90;;;;;;6339916;22;20022;-28
2024/01/30 12:25:10;;;;;;;7.28;1.83;;;8.50;99.90;;;;;;6311749;22;20010;-28
2024/01/30 12:27:41;;;;;;;3.40;1.17;;;8.40;99.90;;;;;;6312893;22;20014;-28
2024/01/30 12:30:11;;;;;;;5.78;0.93;;;8.50;99.90;;;;;;6340667;22;20010;-28
2024/01/30 12:32:39;;;;;;;4.57;1.42;;;8.50;99.90;;;;;;6312620;22;20010;-29
2024/01/30 12:35:23;;;;;;;5.28;0.68;;;8.60;99.90;;;;;;6339791;22;20006;-29